Time;durP1;ratioP1;P1;durP2;ratioP2;P2;SDS_P1;SDS_P2;PMS_P1;PMS_P2;Temp;Humidity;BMP_temperature;BMP_pressure;BME280_temperature;BME280_humidity;BME280_pressure;Samples;Min_cycle;Max_cycle;Signal;HPM_P1;HPM_P2
2022/11/20 00:02:44;;;;;;;15.50;11.75;;;6.00;99.90;;;;;;5070246;28;20224;-74
2022/11/20 00:05:30;;;;;;;17.80;11.00;;;5.90;99.90;;;;;;5059262;28;20203;-73
2022/11/20 00:08:15;;;;;;;14.15;10.27;;;5.70;99.90;;;;;;5068137;28;20262;-74
2022/11/20 00:11:04;;;;;;;17.83;11.75;;;5.70;99.90;;;;;;5073252;28;20740;-74
2022/11/20 00:13:51;;;;;;;17.33;12.20;;;5.70;99.90;;;;;;5058444;28;20709;-74
2022/11/20 00:16:38;;;;;;;16.63;10.93;;;5.70;99.90;;;;;;5071026;28;20216;-74
2022/11/20 00:19:24;;;;;;;15.80;10.55;;;5.80;99.90;;;;;;5070992;28;20228;-73
2022/11/20 00:22:09;;;;;;;13.85;9.80;;;5.80;99.90;;;;;;5062056;28;20232;-73
2022/11/20 00:24:57;;;;;;;14.38;10.23;;;5.80;99.90;;;;;;5059870;28;20418;-73
2022/11/20 00:27:42;;;;;;;15.35;9.77;;;5.80;99.90;;;;;;5062630;28;20281;-73
2022/11/20 00:30:27;;;;;;;13.57;10.02;;;5.90;99.90;;;;;;5067244;28;20204;-73
2022/11/20 00:33:14;;;;;;;13.00;9.32;;;6.00;99.90;;;;;;5064978;28;20342;-74
2022/11/20 00:36:02;;;;;;;15.20;10.05;;;6.00;99.90;;;;;;5062734;28;20341;-73
2022/11/20 00:38:47;;;;;;;13.40;9.25;;;6.00;99.90;;;;;;5065415;28;20204;-74
2022/11/20 00:41:33;;;;;;;11.50;8.40;;;5.90;99.90;;;;;;5070819;28;20676;-74
2022/11/20 00:44:18;;;;;;;13.30;8.95;;;5.90;99.90;;;;;;5064899;28;20555;-73
2022/11/20 00:47:04;;;;;;;12.00;8.25;;;5.90;99.90;;;;;;5067635;28;20232;-73
2022/11/20 00:49:52;;;;;;;11.05;7.93;;;6.00;99.90;;;;;;5062359;28;20290;-73
2022/11/20 00:52:37;;;;;;;9.90;7.75;;;6.00;99.90;;;;;;5069411;28;22023;-73
2022/11/20 00:55:23;;;;;;;10.05;7.32;;;6.00;99.90;;;;;;5069701;28;20294;-73
2022/11/20 00:58:08;;;;;;;11.32;7.88;;;6.10;99.90;;;;;;5068436;28;20226;-73
2022/11/20 01:00:54;;;;;;;9.50;7.57;;;5.90;99.90;;;;;;5066707;28;20354;-73
2022/11/20 01:03:42;;;;;;;8.35;6.45;;;5.80;99.90;;;;;;5061238;28;20212;-73
2022/11/20 01:06:30;;;;;;;9.13;6.88;;;5.90;99.90;;;;;;5067512;28;20228;-73
2022/11/20 01:09:16;;;;;;;8.27;6.57;;;5.80;99.90;;;;;;5073104;28;20204;-73
2022/11/20 01:12:01;;;;;;;10.18;6.78;;;5.80;99.90;;;;;;5075244;28;20277;-73
2022/11/20 01:14:48;;;;;;;9.15;6.75;;;5.70;99.90;;;;;;5062534;28;20586;-73
2022/11/20 01:17:33;;;;;;;9.50;6.72;;;5.70;99.90;;;;;;5071027;28;20304;-73
2022/11/20 01:20:19;;;;;;;7.88;6.18;;;5.60;99.90;;;;;;5071954;28;20302;-73
2022/11/20 01:23:06;;;;;;;7.57;6.13;;;5.70;99.90;;;;;;5067897;28;20208;-73
2022/11/20 01:25:52;;;;;;;7.45;5.90;;;5.70;99.90;;;;;;5067344;28;20200;-73
2022/11/20 01:28:37;;;;;;;7.68;5.95;;;5.70;99.90;;;;;;5071905;28;20265;-73
2022/11/20 01:31:25;;;;;;;8.60;6.30;;;5.70;99.90;;;;;;5065447;28;20298;-73
2022/11/20 01:34:20;;;;;;;7.28;5.28;;;5.80;99.90;;;;;;5064368;28;20200;-73
2022/11/20 01:37:06;;;;;;;6.63;5.22;;;5.80;99.90;;;;;;5063247;28;20240;-73
2022/11/20 01:39:53;;;;;;;6.15;4.70;;;5.90;99.90;;;;;;5072406;28;20692;-73
2022/11/20 01:46:03;;;;;;;19.55;6.20;;;5.90;99.90;;;;;;5064600;28;20238;-73
2022/11/20 01:48:53;;;;;;;4.95;4.30;;;5.90;99.90;;;;;;5067408;28;20685;-73
2022/11/20 01:51:43;;;;;;;8.40;5.70;;;6.00;99.90;;;;;;5070882;28;20223;-73
2022/11/20 01:54:32;;;;;;;6.72;5.07;;;5.90;99.90;;;;;;5059293;28;20212;-74
2022/11/20 01:57:20;;;;;;;6.00;4.60;;;5.90;99.90;;;;;;5071768;28;20220;-73
2022/11/20 02:00:09;;;;;;;7.25;5.25;;;5.80;99.90;;;;;;5060915;28;20220;-73
2022/11/20 02:02:58;;;;;;;5.55;4.57;;;5.80;99.90;;;;;;5065894;28;20729;-73
2022/11/20 02:05:48;;;;;;;6.32;4.30;;;5.80;99.90;;;;;;5064159;28;20202;-73
2022/11/20 02:08:35;;;;;;;6.13;5.05;;;5.90;99.90;;;;;;5073938;28;20274;-73
2022/11/20 02:11:20;;;;;;;7.85;4.80;;;5.90;99.90;;;;;;5066748;28;20716;-73
2022/11/20 02:14:07;;;;;;;12.88;5.70;;;6.00;99.90;;;;;;5062990;28;20240;-74
2022/11/20 02:16:55;;;;;;;7.47;5.97;;;6.00;99.90;;;;;;5073124;28;20227;-73
2022/11/20 02:19:40;;;;;;;9.68;7.22;;;5.90;99.90;;;;;;5076406;28;20285;-73
2022/11/20 02:22:31;;;;;;;10.48;7.38;;;5.90;99.90;;;;;;5066084;28;20204;-73
2022/11/20 02:25:19;;;;;;;10.95;8.25;;;5.90;99.90;;;;;;5068134;28;20220;-73
2022/11/20 02:28:06;;;;;;;11.52;8.10;;;5.80;99.90;;;;;;5061984;28;20223;-73
2022/11/20 02:30:52;;;;;;;14.15;8.60;;;5.70;99.90;;;;;;5069473;28;20279;-73
2022/11/20 02:33:38;;;;;;;11.73;8.57;;;5.50;99.90;;;;;;5064999;28;20206;-73
2022/11/20 02:36:27;;;;;;;13.50;9.38;;;5.50;99.90;;;;;;5064945;28;20251;-73
2022/11/20 02:39:16;;;;;;;12.05;8.85;;;5.60;99.90;;;;;;5070322;28;20354;-73
2022/11/20 02:42:03;;;;;;;10.65;8.43;;;5.70;99.90;;;;;;5068947;28;20205;-73
2022/11/20 02:44:49;;;;;;;12.00;8.32;;;5.70;99.90;;;;;;5072585;28;20204;-73
2022/11/20 02:47:35;;;;;;;13.00;8.32;;;5.70;99.90;;;;;;5071543;28;20345;-73
2022/11/20 02:50:20;;;;;;;12.30;8.38;;;5.70;99.90;;;;;;5064012;28;20220;-73
2022/11/20 02:53:06;;;;;;;12.95;9.75;;;5.70;99.90;;;;;;5062834;28;20204;-73
2022/11/20 02:55:52;;;;;;;12.07;8.25;;;5.80;99.90;;;;;;5062432;28;20203;-73
2022/11/20 02:58:39;;;;;;;10.98;8.20;;;5.90;99.90;;;;;;5065732;28;20270;-74
2022/11/20 03:01:24;;;;;;;9.68;7.53;;;5.90;99.90;;;;;;5064262;28;20294;-73
2022/11/20 03:04:10;;;;;;;9.68;7.28;;;6.00;99.90;;;;;;5063206;28;20824;-73
2022/11/20 03:06:56;;;;;;;9.55;7.25;;;5.90;99.90;;;;;;5066687;28;20272;-73
2022/11/20 03:09:41;;;;;;;8.32;6.75;;;5.80;99.90;;;;;;5064567;28;20216;-73
2022/11/20 03:12:27;;;;;;;10.75;8.50;;;5.80;99.90;;;;;;5062211;28;20204;-73
2022/11/20 03:15:14;;;;;;;9.65;6.97;;;5.60;99.90;;;;;;5065828;28;20577;-73
2022/11/20 03:18:00;;;;;;;9.00;6.68;;;5.70;99.90;;;;;;5072302;28;20285;-73
2022/11/20 03:20:46;;;;;;;9.15;7.00;;;5.70;99.90;;;;;;5074456;28;20578;-73
2022/11/20 03:23:33;;;;;;;8.43;7.03;;;5.80;99.90;;;;;;5068438;28;20208;-73
2022/11/20 03:26:20;;;;;;;8.38;6.82;;;5.90;99.90;;;;;;5071285;28;20223;-73
2022/11/20 03:29:06;;;;;;;10.85;7.78;;;6.00;99.90;;;;;;5074578;28;20200;-73
2022/11/20 03:31:53;;;;;;;9.75;8.25;;;5.90;99.90;;;;;;5074118;28;20215;-73
2022/11/20 03:34:39;;;;;;;10.05;7.72;;;5.80;99.90;;;;;;5075663;28;20261;-73
2022/11/20 03:37:24;;;;;;;10.50;7.85;;;5.80;99.90;;;;;;5077995;28;20242;-73
2022/11/20 03:40:10;;;;;;;11.73;8.40;;;5.80;99.90;;;;;;5073116;28;20195;-73
2022/11/20 03:42:56;;;;;;;13.05;9.05;;;5.80;99.90;;;;;;5071420;28;20208;-73
2022/11/20 03:45:41;;;;;;;11.90;8.80;;;5.80;99.90;;;;;;5070766;28;20216;-73
2022/11/20 03:48:29;;;;;;;11.95;9.68;;;5.80;99.90;;;;;;5070855;28;20281;-73
2022/11/20 03:51:17;;;;;;;11.35;9.63;;;5.90;99.90;;;;;;5070175;28;20281;-73
2022/11/20 03:54:05;;;;;;;14.63;11.18;;;6.00;99.90;;;;;;5062899;28;20213;-73
2022/11/20 03:56:50;;;;;;;13.45;10.88;;;5.90;99.90;;;;;;5067052;28;20596;-73
2022/11/20 03:59:35;;;;;;;14.13;10.43;;;6.00;99.90;;;;;;5070228;28;20199;-73
2022/11/20 04:02:21;;;;;;;15.52;11.82;;;6.00;99.90;;;;;;5061666;28;20232;-73
2022/11/20 04:05:09;;;;;;;13.52;10.93;;;6.00;99.90;;;;;;5063973;28;20240;-73
2022/11/20 04:07:54;;;;;;;17.42;12.35;;;5.90;99.90;;;;;;5067756;28;20618;-73
2022/11/20 04:10:40;;;;;;;15.13;11.05;;;5.80;99.90;;;;;;5072849;28;20612;-73
2022/11/20 04:13:26;;;;;;;16.83;10.98;;;5.80;99.90;;;;;;5072389;28;20644;-73
2022/11/20 04:16:11;;;;;;;13.43;10.75;;;5.90;99.90;;;;;;5072914;28;20216;-73
2022/11/20 04:18:59;;;;;;;27.95;12.98;;;5.90;99.90;;;;;;5072677;28;20563;-73
2022/11/20 04:21:46;;;;;;;15.35;11.82;;;5.80;99.90;;;;;;5067030;28;20283;-73
2022/11/20 04:24:32;;;;;;;13.60;10.27;;;5.80;99.90;;;;;;5075085;28;20274;-73
2022/11/20 04:27:18;;;;;;;14.18;10.63;;;5.90;99.90;;;;;;5070443;28;20732;-73
2022/11/20 04:30:04;;;;;;;13.77;10.07;;;6.00;99.90;;;;;;5076310;28;20209;-73
2022/11/20 04:32:49;;;;;;;13.40;10.02;;;6.10;99.90;;;;;;5067210;28;20223;-73
2022/11/20 04:35:35;;;;;;;14.63;11.57;;;6.10;99.90;;;;;;5071737;28;20340;-73
2022/11/20 04:38:22;;;;;;;13.90;10.40;;;6.20;99.90;;;;;;5074242;28;20227;-73
2022/11/20 04:41:13;;;;;;;15.38;10.73;;;6.30;99.90;;;;;;5068811;28;20252;-73
2022/11/20 04:44:02;;;;;;;16.42;10.95;;;6.30;99.90;;;;;;5067292;28;20201;-73
2022/11/20 04:46:48;;;;;;;14.75;11.15;;;6.20;99.90;;;;;;5073445;28;20303;-73
2022/11/20 04:49:34;;;;;;;14.38;11.15;;;6.20;99.90;;;;;;5078926;28;20230;-73
2022/11/20 04:52:19;;;;;;;16.67;11.55;;;6.20;99.90;;;;;;5065502;28;20302;-73
2022/11/20 04:55:08;;;;;;;18.35;11.85;;;6.30;99.90;;;;;;5068172;28;21400;-73
2022/11/20 04:57:53;;;;;;;18.10;12.10;;;6.30;99.90;;;;;;5066517;28;20219;-72
2022/11/20 05:00:39;;;;;;;14.35;10.43;;;6.30;99.90;;;;;;5066670;28;20350;-73
2022/11/20 05:03:25;;;;;;;17.95;12.35;;;6.30;99.90;;;;;;5072897;28;20254;-73
2022/11/20 05:06:12;;;;;;;14.60;10.15;;;6.40;99.90;;;;;;5060272;28;20251;-73
2022/11/20 05:08:57;;;;;;;16.90;12.27;;;6.40;99.90;;;;;;5074579;28;20391;-73
2022/11/20 05:11:44;;;;;;;17.23;11.55;;;6.30;99.90;;;;;;5067762;28;20441;-73
2022/11/20 05:14:30;;;;;;;20.38;12.23;;;6.30;99.90;;;;;;5066113;28;20255;-73
2022/11/20 05:17:15;;;;;;;16.77;11.00;;;6.20;99.90;;;;;;5070501;28;20712;-73
2022/11/20 05:20:01;;;;;;;19.88;12.00;;;6.20;99.90;;;;;;5065591;28;20574;-73
2022/11/20 05:22:47;;;;;;;19.17;13.32;;;6.10;99.90;;;;;;5064534;28;20251;-73
2022/11/20 05:25:32;;;;;;;16.48;11.88;;;6.00;99.90;;;;;;5065224;28;20219;-73
2022/11/20 05:28:19;;;;;;;14.52;10.98;;;6.10;99.90;;;;;;5067683;28;20200;-73
2022/11/20 05:31:09;;;;;;;15.73;11.77;;;6.20;99.90;;;;;;5059131;28;20246;-73
2022/11/20 05:33:55;;;;;;;18.70;13.30;;;6.20;99.90;;;;;;5069271;28;20339;-73
2022/11/20 05:36:40;;;;;;;18.20;12.85;;;6.10;99.90;;;;;;5064593;28;20223;-73
2022/11/20 05:39:26;;;;;;;21.13;12.98;;;6.10;99.90;;;;;;5070170;28;20234;-73
2022/11/20 05:45:16;;;;;;;18.38;13.52;;;6.20;99.90;;;;;;5070999;28;20357;-73
2022/11/20 05:48:02;;;;;;;20.05;12.60;;;6.30;99.90;;;;;;5068869;28;20269;-73
2022/11/20 05:50:48;;;;;;;20.73;12.35;;;6.20;99.90;;;;;;5059961;28;20930;-73
2022/11/20 05:53:34;;;;;;;18.30;13.13;;;6.30;99.90;;;;;;5068550;28;20194;-73
2022/11/20 05:56:21;;;;;;;18.88;12.40;;;6.40;99.90;;;;;;5071090;28;20228;-73
2022/11/20 05:59:06;;;;;;;18.35;12.50;;;6.40;99.90;;;;;;5072767;28;20195;-73
2022/11/20 06:01:53;;;;;;;17.20;12.10;;;6.40;99.90;;;;;;5062392;28;20227;-73
2022/11/20 06:04:39;;;;;;;19.13;13.75;;;6.50;99.90;;;;;;5070008;28;20216;-73
2022/11/20 06:07:24;;;;;;;19.20;12.43;;;6.50;99.90;;;;;;5071528;28;20294;-73
2022/11/20 06:10:10;;;;;;;17.55;13.68;;;6.50;99.90;;;;;;5067329;28;20205;-73
2022/11/20 06:12:58;;;;;;;18.40;13.60;;;6.50;99.90;;;;;;5069352;28;20214;-73
2022/11/20 06:15:49;;;;;;;22.50;14.25;;;6.50;99.90;;;;;;5073758;28;20207;-73
2022/11/20 06:18:36;;;;;;;34.38;24.38;;;6.50;99.90;;;;;;5081873;28;20199;-73
2022/11/20 06:21:24;;;;;;;20.70;14.68;;;6.50;99.90;;;;;;5063443;28;20239;-73
2022/11/20 06:24:11;;;;;;;21.35;13.25;;;6.50;99.90;;;;;;5066913;28;20697;-73
2022/11/20 06:26:56;;;;;;;19.65;13.80;;;6.50;99.90;;;;;;5078915;28;20600;-73
2022/11/20 06:29:42;;;;;;;19.45;13.07;;;6.40;99.90;;;;;;5063921;28;20228;-73
2022/11/20 06:32:27;;;;;;;19.73;13.57;;;6.40;99.90;;;;;;5066266;28;20685;-73
2022/11/20 06:35:14;;;;;;;22.42;15.30;;;6.40;99.90;;;;;;5066261;28;20208;-74
2022/11/20 06:38:00;;;;;;;21.67;13.48;;;6.50;99.90;;;;;;5073560;28;20272;-73
2022/11/20 06:40:45;;;;;;;20.05;13.75;;;6.50;99.90;;;;;;5057000;28;20278;-72
2022/11/20 06:43:31;;;;;;;17.33;12.10;;;6.50;99.90;;;;;;5068888;28;20564;-73
2022/11/20 06:46:18;;;;;;;21.85;13.30;;;6.60;99.90;;;;;;5063973;28;20696;-73
2022/11/20 06:49:04;;;;;;;18.55;12.57;;;6.60;99.90;;;;;;5066427;28;20212;-73
2022/11/20 06:51:50;;;;;;;20.85;14.70;;;6.60;99.90;;;;;;5072102;28;20599;-73
2022/11/20 06:54:36;;;;;;;18.42;12.82;;;6.50;99.90;;;;;;5078839;28;20318;-73
2022/11/20 06:57:21;;;;;;;28.13;16.83;;;6.50;99.90;;;;;;5078162;28;20329;-73
2022/11/20 07:00:08;;;;;;;21.10;13.70;;;6.50;99.90;;;;;;5068057;28;20200;-73
2022/11/20 07:02:53;;;;;;;27.27;14.65;;;6.40;99.90;;;;;;5070908;28;20216;-73
2022/11/20 07:05:40;;;;;;;20.63;14.43;;;6.40;99.90;;;;;;5067166;28;20274;-73
2022/11/20 07:08:28;;;;;;;68.18;34.83;;;6.40;99.90;;;;;;5067726;28;20589;-73
2022/11/20 07:11:14;;;;;;;148.00;60.38;;;6.30;99.90;;;;;;5067752;28;20211;-73
2022/11/20 07:13:59;;;;;;;108.75;47.55;;;6.40;99.90;;;;;;5076172;28;20271;-73
2022/11/20 07:16:45;;;;;;;66.55;30.88;;;6.50;99.90;;;;;;5072099;28;20220;-73
2022/11/20 07:19:31;;;;;;;43.53;23.75;;;6.50;99.90;;;;;;5071379;28;20204;-73
2022/11/20 07:22:17;;;;;;;30.95;17.83;;;6.50;99.90;;;;;;5078001;28;20246;-73
2022/11/20 07:25:04;;;;;;;20.33;14.82;;;6.60;99.90;;;;;;5074716;28;20200;-73
2022/11/20 07:27:49;;;;;;;26.88;15.38;;;6.50;99.90;;;;;;5071692;28;20223;-73
2022/11/20 07:30:35;;;;;;;23.70;15.65;;;6.50;99.90;;;;;;5076083;28;20219;-73
2022/11/20 07:33:21;;;;;;;22.42;15.40;;;6.50;99.90;;;;;;5068655;28;20219;-73
2022/11/20 07:36:07;;;;;;;19.42;14.52;;;6.50;99.90;;;;;;5077481;28;20220;-73
2022/11/20 07:38:54;;;;;;;23.13;14.88;;;6.60;99.90;;;;;;5062876;28;20869;-73
2022/11/20 07:41:41;;;;;;;20.15;14.95;;;6.60;99.90;;;;;;5070053;28;20676;-73
2022/11/20 07:44:26;;;;;;;19.92;15.48;;;6.60;99.90;;;;;;5067803;28;20316;-73
2022/11/20 07:47:12;;;;;;;22.65;15.50;;;6.70;99.90;;;;;;5068960;28;20237;-73
2022/11/20 07:49:57;;;;;;;23.95;14.80;;;6.70;99.90;;;;;;5060612;28;20208;-73
2022/11/20 07:52:43;;;;;;;21.30;15.18;;;6.70;99.90;;;;;;5068582;28;20235;-73
2022/11/20 07:55:29;;;;;;;23.13;14.82;;;6.80;99.90;;;;;;5070430;28;20274;-73
2022/11/20 07:58:16;;;;;;;22.42;16.00;;;6.70;99.90;;;;;;5070936;28;20219;-73
2022/11/20 08:01:04;;;;;;;21.48;14.30;;;6.70;99.90;;;;;;5067094;28;20201;-73
2022/11/20 08:03:50;;;;;;;20.50;14.23;;;6.70;99.90;;;;;;5072376;28;20220;-73
2022/11/20 08:06:36;;;;;;;19.90;14.68;;;6.70;99.90;;;;;;5066943;28;20236;-73
2022/11/20 08:09:22;;;;;;;24.25;17.08;;;6.60;99.90;;;;;;5064900;28;20206;-73
2022/11/20 08:15:13;;;;;;;24.35;15.45;;;6.60;99.90;;;;;;5075885;28;20683;-73
2022/11/20 08:18:06;;;;;;;24.65;16.52;;;6.70;99.90;;;;;;5070516;28;20223;-73
2022/11/20 08:20:51;;;;;;;27.55;18.05;;;6.80;99.90;;;;;;5072137;28;20204;-73
2022/11/20 08:23:37;;;;;;;22.08;15.75;;;6.70;99.90;;;;;;5077351;28;20249;-73
2022/11/20 08:26:23;;;;;;;29.45;20.15;;;6.80;99.90;;;;;;5070744;28;20247;-73
2022/11/20 08:29:08;;;;;;;43.60;27.08;;;6.80;99.90;;;;;;5068358;28;20282;-73
2022/11/20 08:31:55;;;;;;;38.00;24.08;;;6.80;99.90;;;;;;5067381;28;20200;-73
2022/11/20 08:34:41;;;;;;;31.35;20.35;;;6.80;99.90;;;;;;5071039;28;20207;-73
2022/11/20 08:37:26;;;;;;;31.55;21.40;;;6.80;99.90;;;;;;5066210;28;20260;-73
2022/11/20 08:40:13;;;;;;;28.60;18.75;;;6.80;99.90;;;;;;5066948;28;20212;-73
2022/11/20 08:42:58;;;;;;;35.20;21.02;;;6.70;99.90;;;;;;5069104;28;20216;-73
2022/11/20 08:45:43;;;;;;;30.92;21.38;;;6.40;99.90;;;;;;5064088;28;20223;-73
2022/11/20 08:48:30;;;;;;;35.33;19.98;;;6.30;99.90;;;;;;5068113;28;20300;-73
2022/11/20 08:51:16;;;;;;;33.95;21.35;;;6.40;99.90;;;;;;5068317;28;20199;-73
2022/11/20 08:54:02;;;;;;;32.63;19.30;;;6.40;99.90;;;;;;5069021;28;20212;-73
2022/11/20 08:56:47;;;;;;;38.65;20.17;;;6.40;99.90;;;;;;5064825;28;20228;-73
2022/11/20 08:59:33;;;;;;;33.15;20.75;;;6.50;99.90;;;;;;5063439;28;20689;-73
2022/11/20 09:02:18;;;;;;;27.45;19.42;;;6.50;99.90;;;;;;5067854;28;20220;-73
2022/11/20 09:05:06;;;;;;;35.05;18.30;;;6.40;99.90;;;;;;5070632;28;20208;-73
2022/11/20 09:07:52;;;;;;;29.30;19.60;;;6.50;99.90;;;;;;5063960;28;20278;-73
2022/11/20 09:10:39;;;;;;;27.98;17.88;;;6.60;99.90;;;;;;5072160;28;20195;-73
2022/11/20 09:13:26;;;;;;;35.28;18.48;;;6.60;99.90;;;;;;5072970;28;20739;-73
2022/11/20 09:16:11;;;;;;;39.70;24.48;;;6.70;99.90;;;;;;5072572;28;20286;-73
2022/11/20 09:18:56;;;;;;;34.03;21.52;;;6.80;99.90;;;;;;5065458;28;20196;-73
2022/11/20 09:21:43;;;;;;;29.45;18.50;;;6.70;99.90;;;;;;5077212;28;20223;-73
2022/11/20 09:24:29;;;;;;;29.52;18.92;;;6.70;99.90;;;;;;5080917;28;20754;-73
2022/11/20 09:27:15;;;;;;;31.50;18.70;;;6.60;99.90;;;;;;5067634;28;20339;-73
2022/11/20 09:30:00;;;;;;;29.10;17.88;;;6.60;99.90;;;;;;5068231;28;20208;-73
2022/11/20 09:32:46;;;;;;;27.23;17.30;;;6.70;99.90;;;;;;5069766;28;20200;-73
2022/11/20 09:35:32;;;;;;;30.13;17.75;;;6.70;99.90;;;;;;5073187;28;20262;-73
2022/11/20 09:38:19;;;;;;;28.20;18.73;;;6.70;99.90;;;;;;5069124;28;20419;-73
2022/11/20 09:41:06;;;;;;;28.15;19.45;;;6.70;99.90;;;;;;5076711;28;20204;-73
2022/11/20 09:44:00;;;;;;;27.77;17.30;;;6.70;99.90;;;;;;5080427;28;20211;-73
2022/11/20 09:46:54;;;;;;;27.48;17.98;;;6.70;99.90;;;;;;5069649;28;20222;-73
2022/11/20 09:49:57;;;;;;;26.73;16.25;;;6.60;99.90;;;;;;5066767;28;20196;-73
2022/11/20 09:52:55;;;;;;;27.65;17.33;;;6.50;99.90;;;;;;5070560;28;20192;-73
2022/11/20 09:55:42;;;;;;;27.15;17.88;;;6.50;99.90;;;;;;5067251;28;20220;-73
2022/11/20 09:58:35;;;;;;;28.23;18.05;;;6.40;99.90;;;;;;5067740;28;20205;-73
2022/11/20 10:01:27;;;;;;;31.33;18.83;;;6.40;99.90;;;;;;5071061;28;20242;-73
2022/11/20 10:04:18;;;;;;;27.65;18.65;;;6.40;99.90;;;;;;5067203;28;20220;-73
2022/11/20 10:07:09;;;;;;;29.95;16.00;;;6.50;99.90;;;;;;5065013;28;20224;-73
2022/11/20 10:09:57;;;;;;;34.22;19.33;;;6.50;99.90;;;;;;5068154;28;20678;-73
2022/11/20 10:12:57;;;;;;;30.50;19.35;;;6.40;99.90;;;;;;5068410;28;20764;-73
2022/11/20 10:15:53;;;;;;;29.55;17.38;;;6.50;99.90;;;;;;5069838;28;20203;-73
2022/11/20 10:18:55;;;;;;;30.23;17.73;;;6.60;99.90;;;;;;5071235;28;20207;-73
2022/11/20 10:21:56;;;;;;;34.80;19.27;;;6.60;99.90;;;;;;5068218;28;20212;-73
2022/11/20 10:24:53;;;;;;;35.80;19.13;;;6.80;99.90;;;;;;5067576;28;20792;-73
2022/11/20 10:28:07;;;;;;;37.15;20.10;;;6.80;99.90;;;;;;5063173;28;20224;-73
2022/11/20 10:31:00;;;;;;;38.95;21.08;;;6.80;99.90;;;;;;5078282;28;20313;-73
2022/11/20 10:33:49;;;;;;;37.20;20.50;;;6.90;99.90;;;;;;5078422;28;20208;-74
2022/11/20 10:36:39;;;;;;;29.17;18.27;;;6.90;99.90;;;;;;5073507;28;20243;-75
2022/11/20 10:39:34;;;;;;;39.42;21.15;;;7.00;99.90;;;;;;5068593;28;20200;-75
2022/11/20 10:42:30;;;;;;;33.15;18.92;;;6.90;99.90;;;;;;5074825;28;20296;-75
2022/11/20 10:45:28;;;;;;;38.33;19.05;;;6.90;99.90;;;;;;5066255;28;20282;-75
2022/11/20 10:48:19;;;;;;;34.38;19.40;;;6.90;99.90;;;;;;5069084;28;20200;-74
2022/11/20 10:51:16;;;;;;;31.90;18.92;;;6.90;99.90;;;;;;5070500;28;20196;-75
2022/11/20 10:54:15;;;;;;;31.70;19.13;;;6.80;99.90;;;;;;5066973;28;20208;-74
2022/11/20 10:57:08;;;;;;;33.03;20.40;;;6.80;99.90;;;;;;5069634;28;20228;-76
2022/11/20 11:00:05;;;;;;;29.75;17.83;;;6.90;99.90;;;;;;5073832;28;20262;-76
2022/11/20 11:02:54;;;;;;;34.75;21.10;;;6.80;99.90;;;;;;5074576;28;20216;-75
2022/11/20 11:05:45;;;;;;;29.42;17.50;;;6.90;99.90;;;;;;5059809;28;20760;-74
2022/11/20 11:08:37;;;;;;;32.42;18.40;;;6.90;99.90;;;;;;5065067;28;20612;-75
2022/11/20 11:11:27;;;;;;;33.78;19.65;;;7.00;99.90;;;;;;5072200;28;20254;-75
2022/11/20 11:14:14;;;;;;;28.73;16.67;;;7.00;99.90;;;;;;5070168;28;20789;-73
2022/11/20 11:17:00;;;;;;;26.02;16.60;;;7.10;99.90;;;;;;5069060;28;20223;-73
2022/11/20 11:20:01;;;;;;;22.27;15.63;;;7.10;99.90;;;;;;5070348;28;20208;-74
2022/11/20 11:22:49;;;;;;;22.27;15.18;;;7.20;99.90;;;;;;5068959;28;20227;-72
2022/11/20 11:25:36;;;;;;;28.30;16.10;;;7.20;99.90;;;;;;5076920;28;20602;-74
2022/11/20 11:28:27;;;;;;;27.50;15.95;;;7.10;99.90;;;;;;5067075;28;20235;-73
2022/11/20 11:31:24;;;;;;;27.77;16.23;;;7.20;99.90;;;;;;5067926;28;20327;-73
2022/11/20 11:34:13;;;;;;;20.35;14.35;;;7.20;99.90;;;;;;5069360;28;21088;-72
2022/11/20 11:37:03;;;;;;;21.23;14.65;;;7.30;99.90;;;;;;5067160;28;20768;-72
2022/11/20 11:39:49;;;;;;;22.05;14.10;;;7.50;99.90;;;;;;5076079;28;20208;-73
2022/11/20 11:42:35;;;;;;;21.13;13.82;;;7.50;99.90;;;;;;5082871;28;20216;-75
2022/11/20 11:45:20;;;;;;;20.73;14.27;;;7.60;99.90;;;;;;5077320;28;20203;-74
2022/11/20 11:48:10;;;;;;;25.30;15.40;;;7.60;99.90;;;;;;5078901;28;20297;-75
2022/11/20 11:50:55;;;;;;;24.27;15.15;;;7.60;99.90;;;;;;5078761;28;20327;-75
2022/11/20 11:53:43;;;;;;;23.40;15.63;;;7.70;99.90;;;;;;5084519;28;20268;-76
2022/11/20 11:56:29;;;;;;;22.90;14.48;;;7.70;99.90;;;;;;5081432;28;20231;-75
2022/11/20 11:59:23;;;;;;;24.30;16.33;;;7.70;99.90;;;;;;5072313;28;20205;-76
2022/11/20 12:02:23;;;;;;;21.05;14.75;;;7.50;99.90;;;;;;5075616;28;20205;-76
2022/11/20 12:05:19;;;;;;;27.50;15.23;;;7.60;99.90;;;;;;5078525;28;20239;-76
2022/11/20 12:08:11;;;;;;;30.95;15.32;;;7.60;99.90;;;;;;5068733;28;20625;-74
2022/11/20 12:11:04;;;;;;;23.80;15.50;;;7.50;99.90;;;;;;5082961;28;20200;-74
2022/11/20 12:13:56;;;;;;;26.38;15.98;;;7.60;99.90;;;;;;5069833;28;20196;-75
2022/11/20 12:16:42;;;;;;;52.17;15.32;;;7.70;99.90;;;;;;5061583;28;20291;-74
2022/11/20 12:19:30;;;;;;;22.85;15.25;;;7.70;99.90;;;;;;5066196;28;20715;-72
2022/11/20 12:22:28;;;;;;;28.48;14.35;;;7.70;99.90;;;;;;5070116;28;20208;-70
2022/11/20 12:25:19;;;;;;;23.70;15.23;;;7.70;99.90;;;;;;5068879;28;20212;-73
2022/11/20 12:28:20;;;;;;;29.42;15.75;;;7.80;99.90;;;;;;5064441;28;20220;-72
2022/11/20 12:31:27;;;;;;;25.58;15.10;;;7.80;99.90;;;;;;5066058;28;20267;-74
2022/11/20 12:34:24;;;;;;;27.00;14.73;;;7.70;99.90;;;;;;5064908;28;20216;-72
2022/11/20 12:37:21;;;;;;;24.15;14.93;;;7.80;99.90;;;;;;5066936;28;20231;-72
2022/11/20 12:40:26;;;;;;;28.17;17.42;;;7.70;99.90;;;;;;5066649;28;20220;-72
2022/11/20 12:46:34;;;;;;;27.75;16.77;;;7.60;99.90;;;;;;5067643;28;20263;-72
2022/11/20 12:49:29;;;;;;;30.42;17.83;;;7.60;99.90;;;;;;5065331;28;20208;-72
2022/11/20 12:52:31;;;;;;;27.88;17.58;;;7.60;99.90;;;;;;5066167;28;20209;-73
2022/11/20 12:55:26;;;;;;;27.17;15.77;;;7.70;99.90;;;;;;5081596;28;20281;-72
2022/11/20 12:58:20;;;;;;;25.38;15.90;;;7.70;99.90;;;;;;5063580;28;20290;-72
2022/11/20 13:01:39;;;;;;;27.42;15.98;;;7.70;99.90;;;;;;5074793;28;20781;-70
2022/11/20 13:04:54;;;;;;;23.52;14.80;;;7.80;99.90;;;;;;5063921;28;20224;-72
2022/11/20 13:07:40;;;;;;;88.53;22.08;;;7.80;99.90;;;;;;5046398;28;20220;-71
2022/11/20 13:10:34;;;;;;;23.63;14.00;;;7.90;99.90;;;;;;5069835;28;20208;-73
2022/11/20 13:13:26;;;;;;;21.70;13.85;;;7.90;99.90;;;;;;5069034;28;20209;-74
2022/11/20 13:16:18;;;;;;;24.00;14.88;;;8.00;99.90;;;;;;5062091;28;20662;-73
2022/11/20 13:19:05;;;;;;;23.67;14.73;;;8.00;99.90;;;;;;5065858;28;20311;-74
2022/11/20 13:21:51;;;;;;;21.35;13.68;;;8.00;99.90;;;;;;5067148;28;20200;-73
2022/11/20 13:24:37;;;;;;;23.20;14.80;;;8.00;99.90;;;;;;5065895;28;20225;-76
2022/11/20 13:27:24;;;;;;;24.03;14.63;;;8.00;99.90;;;;;;5059722;28;21093;-72
2022/11/20 13:30:18;;;;;;;22.70;13.57;;;8.00;99.90;;;;;;5056771;28;20540;-72
2022/11/20 13:33:09;;;;;;;31.73;17.17;;;8.00;99.90;;;;;;5065054;28;20193;-74
2022/11/20 13:35:57;;;;;;;31.75;16.48;;;8.10;99.90;;;;;;5056828;28;20588;-75
2022/11/20 13:38:47;;;;;;;29.50;15.47;;;8.10;99.90;;;;;;5072213;28;20278;-72
2022/11/20 13:41:35;;;;;;;21.83;13.50;;;8.20;99.90;;;;;;5075126;28;20491;-75
2022/11/20 13:44:27;;;;;;;21.25;14.05;;;8.30;99.90;;;;;;5069537;28;20222;-75
2022/11/20 13:47:22;;;;;;;22.80;14.35;;;8.40;99.90;;;;;;5065925;28;20359;-74
2022/11/20 13:50:10;;;;;;;23.13;13.07;;;8.50;99.90;;;;;;5063420;28;20570;-74
2022/11/20 13:53:03;;;;;;;25.75;15.63;;;8.50;99.90;;;;;;5068659;28;20196;-74
2022/11/20 13:55:56;;;;;;;22.23;16.73;;;8.40;99.90;;;;;;5058723;28;20200;-75
2022/11/20 13:58:53;;;;;;;23.38;14.13;;;8.50;99.90;;;;;;5065188;28;20446;-75
2022/11/20 14:01:39;;;;;;;23.70;15.17;;;8.40;99.90;;;;;;5075232;28;20252;-76
2022/11/20 14:04:31;;;;;;;20.23;13.37;;;8.50;99.90;;;;;;5067650;28;20476;-74
2022/11/20 14:07:17;;;;;;;26.88;14.23;;;8.50;99.90;;;;;;5065469;28;20478;-75
2022/11/20 14:10:03;;;;;;;24.67;15.47;;;8.50;99.90;;;;;;5067183;28;20212;-76
2022/11/20 14:12:50;;;;;;;23.23;14.80;;;8.60;99.90;;;;;;5075031;28;20461;-77
2022/11/20 14:15:38;;;;;;;26.63;14.07;;;8.50;99.90;;;;;;5071405;28;20709;-76
2022/11/20 14:18:26;;;;;;;26.60;16.30;;;8.50;99.90;;;;;;5068174;28;20450;-76
2022/11/20 14:21:23;;;;;;;30.97;15.90;;;8.40;99.90;;;;;;5065385;28;20447;-74
2022/11/20 14:24:12;;;;;;;28.30;16.92;;;8.40;99.90;;;;;;5062200;28;21119;-74
2022/11/20 14:26:58;;;;;;;27.03;17.30;;;8.40;99.90;;;;;;5064479;28;20596;-75
2022/11/20 14:29:45;;;;;;;21.60;14.67;;;8.30;99.90;;;;;;5065591;28;20583;-75
2022/11/20 14:32:32;;;;;;;25.83;15.90;;;8.30;99.90;;;;;;5073410;28;20478;-75
2022/11/20 14:35:24;;;;;;;24.07;14.87;;;8.30;99.90;;;;;;5062607;28;20417;-77
2022/11/20 14:38:14;;;;;;;22.40;13.57;;;8.30;99.90;;;;;;5063959;28;20882;-76
2022/11/20 14:41:08;;;;;;;28.70;15.30;;;8.40;99.90;;;;;;5064397;28;20385;-76
2022/11/20 14:43:57;;;;;;;25.17;16.93;;;8.40;99.90;;;;;;5064406;28;20549;-76